Galatas, Greece
Current Conditions -  °F | °C
As of 9:50 PM on Sunday 23 Nov 2014 (Local Time) from LGEL Reporting Station
Scattered Clouds Scattered Clouds  
Wind Chill: 52°   Ceiling: Unl
Heat Index: 52°   Visibility: 6mi
Dew Point: 43°   Wind: 8mph
Humidity: 71%   Direction: 340°NNW
Pressure: 30.27"   Gusts: NA
Location:  37.5°N, 23.45°E
Report Text: LGEL 231850Z 34007KT 9999 FEW020 SCT030 11/06 Q1025
Loading
Personal Weather Stations






























Interactive Weather Map New forecast layout! Learn more

10-Day Weather Forecast

Advertisements
Track Severe Weather on mobile